Elizabethport, New Jersey
Current Conditions -  °F | °C
As of 3:51 PM on Saturday 20 Dec 2014 (Local Time) from KEWR Reporting Station
Overcast Overcast  
Wind Chill: 26°   Ceiling: 3200
Heat Index: 32°   Visibility: 10mi
Dew Point: 21°   Wind: 6mph
Humidity: 64%   Direction: 280°W
Pressure: 30.27"   Gusts: NA
Location:  40.6522°N, 74.1905°W
Report Text: KEWR 202051Z 28005KT 10SM SCT028 OVC032 00/M06 A3027 RMK AO2 SLP250 T00001061 53002
Loading
Personal Weather Stations






























Interactive Weather Map New forecast layout! Learn more

10-Day Weather Forecast

Advertisements
Track Severe Weather on mobile